Webcam 1 more information Webcam 1


Webcam 2 more information Webcam 2


altri nostri siti meteo:

TortoretometeolidoSito sul meteo

TortoretometeolidoSito sul meteo

Pomeziameteo 1Sito sul meteo


Notice: Undefined offset: 3 in /web/htdocs/www.tortoretometeo.it/home/weather28/wsSideColom.php on line 204

Pomeziameteo DashboardSito sul meteo

Caput FrigorisSito sul meteo

BarcellonameteoSito sul meteo

MeteoipassiSito sul meteo

ViterbometeoSito sul meteo

CastelnuovovomanometeoSito sul meteo



Non è richiesta alcuna attenzione speciale.    Non sono presenti avvisi meteorologici di particolare rilevanza

Notice: Undefined offset: 6 in /web/htdocs/www.tortoretometeo.it/home/weather28/metar/metarDisplay.php on line 75

Notice: Undefined offset: 5 in /web/htdocs/www.tortoretometeo.it/home/weather28/metar/metarDisplay.php on line 75

Report METAR

   
LIBP - Pescara
Dati ricevuti: 02-06-2020 01:20
Sereno  
Sereno  
   Vento: W 9.3 km/h
Vento: W 9.3 km/h
Temperatura: 12°C
P.to Rugiada: 11°C
Umidita: 94%
Barometro: 1017 hPa
Nuvole: Sereno
Visibilita: oltre 10 km
dettagli cloud: Sereno
LIBP 012320Z AUTO 24005KT 9999 NCD 12/11 Q1017
LIRZ - Perugia
Dati ricevuti: 02-06-2020 00:50
Sereno  
Sereno  
   Vento: NE 13 km/h
Vento: NE 13 km/h
Temperatura: 15°C
P.to Rugiada: 8°C
Umidita: 63%
Barometro: 1016 hPa
Nuvole: Sereno
Visibilita: oltre 10 km
dettagli cloud: Sereno
LIRZ 012250Z AUTO 02007KT 350V050 9999 NCD 15/08 Q1016
LIQN - Rieti
Dati ricevuti: 01-06-2020 19:50
DATI Obsoleti
Parzialmente nuvoloso  
Parzialmente nuvoloso  
   Vento: W 16.7 km/h
Vento: W 16.7 km/h
Temperatura: 21°C
P.to Rugiada: 8°C
Umidita: 43%
Barometro: 1014 hPa
Nuvole: Parzialmente nuvoloso
Visibilita: oltre 10 km
dettagli cloud: Parzialmente nuvoloso 7000 ft
LIQN 011750Z 29009KT 9999 SCT070TCU 21/08 Q1014
LIPY - Falconara
Dati ricevuti: 02-06-2020 00:50
Sereno  
Sereno  
   Vento: Sud 5.6 km/h
Vento: Sud 5.6 km/h
Temperatura: 13°C
P.to Rugiada: 10°C
Umidita: 82%
Barometro: 1017 hPa
Nuvole: Sereno
Visibilita: oltre 10 km
dettagli cloud: Sereno
LIPY 012250Z AUTO 18003KT 9999 NCD 13/10 Q1017
  

Script sviluppato da  Saratoga-weather.org Adattato per il modello da  Weerstation Leuven

Potete trovare le nostre info meteo anche a:

European Weather Network

Weather Underground

AWEKAS

Citizen Weather Observer Program (CWOP)

HAMweather, WeatherForYou, PWS Weather

Strumentazione usata:

Stazione meteo
Davis VP2

Programma gestore dati meteo
WVIEW

Server per i dati meteo
My Computer

Provider
My provider

Davis VP2

WVIEW

My Computer

My provider